Hegeler, Illinois
Current Conditions -  °F | °C
As of 4:55 AM on Friday 28 Nov 2014 (Local Time) from KDNV Reporting Station
Overcast Overcast  
Wind Chill: -11°   Ceiling: 7500
Heat Index: -7°   Visibility: 10mi
Dew Point: -8°   Wind: 6mph
Humidity: 87%   Direction: 150°SSE
Pressure: 30.33"   Gusts: NA
Location:  40.1365°N, 87.6307°W
Report Text: KDNV 281055Z AUTO 15005KT 10SM SCT065 OVC075 M06/M08 A3033 RMK AO2 T10651084
Loading
Personal Weather Stations






























Interactive Weather Map New forecast layout! Learn more

10-Day Weather Forecast

Advertisements
Track Severe Weather on mobile